Time;durP1;ratioP1;P1;durP2;ratioP2;P2;SDS_P1;SDS_P2;PMS_P1;PMS_P2;Temp;Humidity;BMP_temperature;BMP_pressure;BME280_temperature;BME280_humidity;BME280_pressure;Samples;Min_cycle;Max_cycle;Signal;HPM_P1;HPM_P2
2023/03/15 00:00:55;;;;;;;4.63;0.70;;;5.70;91.50;;;;;;5116022;28;20048;-72
2023/03/15 00:03:23;;;;;;;0.68;0.35;;;5.50;91.80;;;;;;5116096;28;20016;-72
2023/03/15 00:05:51;;;;;;;1.88;0.43;;;5.50;91.80;;;;;;5115911;28;20016;-72
2023/03/15 00:08:17;;;;;;;1.35;0.50;;;5.40;91.90;;;;;;5114835;28;20046;-72
2023/03/15 00:10:44;;;;;;;0.30;0.15;;;5.30;91.80;;;;;;5114863;28;20028;-72
2023/03/15 00:13:11;;;;;;;1.48;0.22;;;5.30;91.50;;;;;;5115784;28;20031;-72
2023/03/15 00:15:45;;;;;;;0.13;0.10;;;5.30;91.50;;;;;;5115695;28;20462;-72
2023/03/15 00:18:11;;;;;;;0.88;0.30;;;5.20;91.70;;;;;;5115651;28;20035;-72
2023/03/15 00:20:37;;;;;;;0.52;0.20;;;5.10;91.50;;;;;;5114833;28;20032;-72
2023/03/15 00:23:03;;;;;;;1.55;0.35;;;5.10;91.50;;;;;;5115583;28;20027;-72
2023/03/15 00:25:28;;;;;;;0.50;0.25;;;5.10;91.40;;;;;;5115657;28;20025;-72
2023/03/15 00:27:54;;;;;;;1.70;0.40;;;5.10;91.50;;;;;;5114509;28;20036;-71
2023/03/15 00:30:20;;;;;;;2.53;0.30;;;5.10;91.50;;;;;;5115423;28;20027;-72
2023/03/15 00:32:45;;;;;;;0.95;0.40;;;5.10;91.40;;;;;;5115416;28;20039;-72
2023/03/15 00:35:17;;;;;;;0.47;0.28;;;5.00;91.60;;;;;;5115351;28;20025;-72
2023/03/15 00:37:43;;;;;;;0.20;0.20;;;5.00;91.50;;;;;;5115296;28;20050;-72
2023/03/15 00:40:09;;;;;;;1.92;0.30;;;5.00;91.50;;;;;;5114318;28;20476;-72
2023/03/15 00:42:34;;;;;;;1.48;0.40;;;5.10;91.50;;;;;;5097394;28;20024;-72
2023/03/15 00:45:00;;;;;;;3.35;0.40;;;5.10;91.80;;;;;;5115136;28;20063;-72
2023/03/15 00:47:26;;;;;;;0.30;0.30;;;5.10;91.70;;;;;;5115138;28;20036;-72
2023/03/15 00:49:51;;;;;;;0.52;0.25;;;5.10;91.90;;;;;;5114874;28;20052;-72
2023/03/15 00:52:18;;;;;;;0.40;0.40;;;5.10;92.00;;;;;;5114056;28;20027;-72
2023/03/15 00:54:50;;;;;;;0.30;0.20;;;5.10;92.10;;;;;;5115122;28;20080;-72
2023/03/15 00:57:16;;;;;;;0.30;0.30;;;5.10;92.30;;;;;;5114967;28;20032;-72
2023/03/15 00:59:43;;;;;;;0.32;0.17;;;5.00;92.50;;;;;;5114805;28;20107;-72
2023/03/15 01:02:09;;;;;;;1.45;0.30;;;5.00;92.90;;;;;;5114833;28;20029;-72
2023/03/15 01:04:35;;;;;;;1.13;0.55;;;4.90;92.90;;;;;;5113859;28;20051;-72
2023/03/15 01:07:01;;;;;;;0.85;0.43;;;4.90;93.00;;;;;;5114735;28;20024;-72
2023/03/15 01:09:26;;;;;;;2.15;0.60;;;5.00;93.30;;;;;;5113675;28;20054;-72
2023/03/15 01:11:52;;;;;;;1.23;0.38;;;4.90;93.10;;;;;;5114677;28;20028;-72
2023/03/15 01:14:18;;;;;;;0.40;0.40;;;4.90;93.10;;;;;;5113736;28;20054;-72
2023/03/15 01:16:47;;;;;;;2.67;0.50;;;4.90;92.80;;;;;;5114526;28;20028;-72
2023/03/15 01:19:13;;;;;;;1.10;0.55;;;4.90;92.60;;;;;;5114426;28;20024;-72
2023/03/15 01:21:39;;;;;;;0.50;0.50;;;4.90;92.50;;;;;;5114484;28;20016;-72
2023/03/15 01:24:05;;;;;;;1.80;0.80;;;4.80;92.50;;;;;;5114390;28;20020;-72
2023/03/15 01:26:31;;;;;;;0.63;0.47;;;4.80;92.40;;;;;;5113917;28;20050;-72
2023/03/15 01:28:57;;;;;;;0.80;0.50;;;4.80;92.50;;;;;;5114340;28;20039;-72
2023/03/15 01:31:29;;;;;;;1.20;0.50;;;4.80;92.90;;;;;;5114322;28;20414;-73
2023/03/15 01:33:55;;;;;;;1.27;0.70;;;4.80;92.80;;;;;;5114334;28;20040;-73
2023/03/15 01:36:20;;;;;;;1.33;0.82;;;4.80;93.10;;;;;;5114190;28;20020;-73
2023/03/15 01:38:48;;;;;;;1.45;1.00;;;4.80;92.70;;;;;;5114101;28;20091;-72
2023/03/15 01:41:15;;;;;;;1.45;0.95;;;4.70;92.90;;;;;;5113175;28;20020;-72
2023/03/15 01:43:47;;;;;;;0.80;0.50;;;4.60;92.90;;;;;;5114091;28;20024;-72
2023/03/15 01:46:22;;;;;;;2.42;0.68;;;4.60;92.90;;;;;;5114213;28;20059;-72
2023/03/15 01:48:54;;;;;;;0.63;0.30;;;4.60;92.90;;;;;;5113898;28;20028;-73
2023/03/15 01:51:34;;;;;;;0.43;0.43;;;4.50;92.80;;;;;;5114017;28;20035;-72
2023/03/15 01:54:07;;;;;;;0.30;0.30;;;4.50;92.80;;;;;;5114097;28;20421;-72
2023/03/15 01:56:34;;;;;;;0.65;0.20;;;4.40;92.90;;;;;;5112886;28;20016;-72
2023/03/15 01:59:03;;;;;;;0.30;0.20;;;4.30;93.10;;;;;;5113752;28;20032;-72
2023/03/15 02:01:30;;;;;;;0.20;0.20;;;4.30;93.10;;;;;;5113785;28;20023;-72
2023/03/15 02:04:06;;;;;;;0.45;0.30;;;4.30;93.10;;;;;;5112833;28;20028;-72
2023/03/15 02:06:34;;;;;;;1.50;0.50;;;4.30;93.10;;;;;;5113790;28;20024;-72
2023/03/15 02:09:05;;;;;;;0.95;0.32;;;4.30;93.20;;;;;;5113604;28;20054;-72
2023/03/15 02:11:32;;;;;;;0.70;0.40;;;4.30;93.10;;;;;;5113727;28;20501;-72
2023/03/15 02:13:59;;;;;;;0.30;0.28;;;4.30;93.00;;;;;;5113780;28;20038;-72
2023/03/15 02:16:25;;;;;;;0.40;0.20;;;4.30;93.10;;;;;;5113626;28;20020;-72
2023/03/15 02:18:50;;;;;;;0.20;0.20;;;4.30;93.00;;;;;;5113512;28;20063;-72
2023/03/15 02:21:19;;;;;;;0.82;0.50;;;4.30;93.20;;;;;;5113629;28;20036;-72
2023/03/15 02:23:50;;;;;;;0.98;0.50;;;4.30;93.30;;;;;;5113526;28;20021;-72
2023/03/15 02:26:28;;;;;;;1.10;0.50;;;4.20;93.40;;;;;;5113586;28;20075;-72
2023/03/15 02:28:54;;;;;;;1.08;0.40;;;4.30;93.50;;;;;;5113556;28;20024;-72
2023/03/15 02:31:21;;;;;;;1.45;0.50;;;4.30;93.40;;;;;;5113456;28;20042;-72
2023/03/15 02:33:50;;;;;;;0.57;0.32;;;4.40;93.40;;;;;;5113456;28;20036;-72
2023/03/15 02:36:19;;;;;;;0.85;0.50;;;4.40;93.30;;;;;;5113498;28;20035;-72
2023/03/15 02:38:46;;;;;;;1.08;0.50;;;4.30;93.70;;;;;;5114958;28;20024;-72
2023/03/15 02:41:16;;;;;;;0.77;0.38;;;4.40;93.40;;;;;;5116604;28;20032;-72
2023/03/15 02:43:42;;;;;;;1.08;0.57;;;4.40;93.70;;;;;;5117631;28;20099;-72
2023/03/15 02:46:09;;;;;;;0.47;0.45;;;4.40;93.70;;;;;;5116580;28;20039;-72
2023/03/15 02:48:37;;;;;;;1.20;0.55;;;4.40;94.00;;;;;;5116478;28;20032;-72
2023/03/15 02:51:02;;;;;;;1.08;0.55;;;4.40;93.90;;;;;;5117308;28;20048;-72
2023/03/15 02:53:30;;;;;;;1.77;0.73;;;4.50;93.60;;;;;;5117392;28;20103;-72
2023/03/15 02:55:57;;;;;;;1.08;0.68;;;4.50;93.80;;;;;;5117275;28;20028;-72
2023/03/15 02:58:22;;;;;;;0.98;0.60;;;4.60;93.60;;;;;;5117140;28;20036;-72
2023/03/15 03:00:48;;;;;;;1.70;0.80;;;4.50;93.70;;;;;;5117158;28;20037;-72
2023/03/15 03:03:14;;;;;;;1.13;0.65;;;4.60;93.60;;;;;;5117145;28;20028;-72
2023/03/15 03:05:39;;;;;;;1.63;0.88;;;4.50;93.90;;;;;;5117144;28;20028;-72
2023/03/15 03:08:05;;;;;;;1.95;0.70;;;4.50;93.80;;;;;;5116983;28;20047;-72
2023/03/15 03:10:31;;;;;;;1.20;0.52;;;4.50;93.80;;;;;;5117018;28;20032;-72
2023/03/15 03:12:56;;;;;;;1.77;0.80;;;4.60;93.70;;;;;;5116962;28;20059;-72
2023/03/15 03:15:22;;;;;;;1.90;0.80;;;4.60;93.90;;;;;;5116884;28;20039;-72
2023/03/15 03:17:48;;;;;;;1.48;0.82;;;4.60;93.70;;;;;;5115868;28;20088;-72
2023/03/15 03:20:14;;;;;;;2.22;1.30;;;4.60;93.80;;;;;;5115976;28;20055;-72
2023/03/15 03:22:40;;;;;;;1.73;1.00;;;4.60;93.90;;;;;;5116789;28;20016;-72
2023/03/15 03:25:11;;;;;;;1.60;1.02;;;4.60;94.00;;;;;;5116705;28;20020;-72
2023/03/15 03:27:37;;;;;;;2.55;1.30;;;4.60;94.10;;;;;;5116783;28;20020;-72
2023/03/15 03:30:11;;;;;;;2.05;1.27;;;4.60;94.10;;;;;;5115717;28;20028;-72
2023/03/15 03:32:36;;;;;;;3.60;1.20;;;4.60;94.10;;;;;;5115723;28;20028;-72
2023/03/15 03:35:02;;;;;;;2.25;1.45;;;4.60;93.90;;;;;;5115638;28;20032;-72
2023/03/15 03:37:29;;;;;;;2.58;1.55;;;4.60;93.90;;;;;;5115627;28;20024;-72
2023/03/15 03:39:55;;;;;;;2.08;1.05;;;4.60;93.70;;;;;;5116494;28;20032;-72
2023/03/15 03:42:21;;;;;;;2.45;1.40;;;4.60;93.90;;;;;;5116397;28;20028;-72
2023/03/15 03:44:49;;;;;;;4.55;1.55;;;4.60;93.70;;;;;;5116397;28;20024;-72
2023/03/15 03:47:14;;;;;;;2.85;1.75;;;4.60;93.70;;;;;;5116288;28;20020;-72
2023/03/15 03:49:40;;;;;;;2.88;1.35;;;4.50;93.50;;;;;;5115273;28;20048;-72
2023/03/15 03:52:05;;;;;;;3.00;1.45;;;4.50;93.90;;;;;;5114266;28;20027;-72
2023/03/15 03:54:31;;;;;;;2.97;1.60;;;4.50;93.70;;;;;;5115003;28;20097;-72
2023/03/15 03:56:57;;;;;;;3.17;1.70;;;4.50;93.60;;;;;;5115124;28;20032;-72
2023/03/15 03:59:23;;;;;;;4.63;1.77;;;4.40;93.90;;;;;;5113935;28;20028;-72
2023/03/15 04:01:50;;;;;;;7.18;2.38;;;4.40;93.70;;;;;;5114906;28;20076;-72
2023/03/15 04:04:15;;;;;;;4.80;1.67;;;4.40;93.50;;;;;;5115007;28;20020;-72
2023/03/15 04:06:44;;;;;;;4.63;1.75;;;4.40;93.60;;;;;;5114804;28;20058;-71
2023/03/15 04:09:14;;;;;;;3.38;1.73;;;4.40;93.60;;;;;;5114729;28;20032;-72
2023/03/15 04:11:44;;;;;;;4.40;1.92;;;4.30;93.40;;;;;;5114064;28;20024;-71
2023/03/15 04:14:11;;;;;;;3.97;1.65;;;4.40;93.50;;;;;;5113798;28;20077;-71
2023/03/15 04:16:38;;;;;;;4.28;2.13;;;4.40;93.40;;;;;;5114618;28;20028;-72
2023/03/15 04:19:04;;;;;;;8.15;2.05;;;4.40;93.30;;;;;;5114548;28;20024;-72
2023/03/15 04:21:32;;;;;;;4.05;1.95;;;4.40;93.20;;;;;;5114595;28;20035;-72
2023/03/15 04:24:02;;;;;;;4.97;2.30;;;4.30;93.30;;;;;;5113727;28;20039;-72
2023/03/15 04:26:28;;;;;;;4.82;2.28;;;4.40;93.30;;;;;;5114485;28;20024;-72
2023/03/15 04:28:55;;;;;;;6.00;2.47;;;4.40;93.20;;;;;;5113669;28;20032;-72
2023/03/15 04:31:25;;;;;;;4.10;2.03;;;4.30;93.10;;;;;;5114564;28;20047;-72
2023/03/15 04:33:54;;;;;;;4.40;2.35;;;4.30;93.10;;;;;;5114427;28;20024;-72
2023/03/15 04:36:21;;;;;;;5.95;2.95;;;4.30;93.10;;;;;;5097068;28;20047;-72
2023/03/15 04:38:48;;;;;;;5.95;2.70;;;4.30;93.10;;;;;;5114220;28;20028;-72
2023/03/15 04:41:14;;;;;;;6.95;3.00;;;4.30;93.10;;;;;;5114293;28;20031;-72
2023/03/15 04:43:40;;;;;;;6.05;2.60;;;4.30;93.00;;;;;;5114237;28;20024;-72
2023/03/15 04:46:07;;;;;;;6.85;3.17;;;4.30;93.00;;;;;;5114349;28;20027;-72
2023/03/15 04:48:33;;;;;;;5.80;2.97;;;4.20;93.10;;;;;;5114191;28;20016;-72
2023/03/15 04:50:58;;;;;;;6.00;2.72;;;4.20;93.20;;;;;;5069369;28;1281665;-72
2023/03/15 04:53:24;;;;;;;5.60;2.60;;;4.20;93.20;;;;;;5114999;28;20036;-72
2023/03/15 04:55:50;;;;;;;7.57;3.25;;;4.20;93.30;;;;;;5114040;28;20055;-71
2023/03/15 04:58:15;;;;;;;7.85;3.47;;;4.20;93.20;;;;;;5113935;28;20063;-72
2023/03/15 05:00:41;;;;;;;10.90;3.42;;;4.20;93.20;;;;;;5114237;28;20028;-72
2023/03/15 05:03:07;;;;;;;7.72;3.30;;;4.20;93.30;;;;;;5114676;28;20049;-72
2023/03/15 05:05:33;;;;;;;8.02;3.63;;;4.20;93.40;;;;;;5113879;28;20079;-72
2023/03/15 05:07:58;;;;;;;7.05;3.55;;;4.20;93.30;;;;;;5114649;28;20051;-72
2023/03/15 05:10:24;;;;;;;8.23;3.85;;;4.20;93.40;;;;;;5114696;28;20028;-72
2023/03/15 05:12:50;;;;;;;8.48;4.05;;;4.20;93.30;;;;;;5114772;28;20028;-71
2023/03/15 05:15:17;;;;;;;9.23;3.22;;;4.20;93.50;;;;;;5114579;28;20016;-72
2023/03/15 05:17:47;;;;;;;8.27;3.77;;;4.20;93.50;;;;;;5113664;28;20043;-72
2023/03/15 05:20:14;;;;;;;8.20;4.20;;;4.10;93.80;;;;;;5114499;28;20091;-72
2023/03/15 05:22:40;;;;;;;9.32;4.13;;;4.10;93.90;;;;;;5114433;28;20032;-72
2023/03/15 05:25:06;;;;;;;8.30;3.63;;;4.10;93.80;;;;;;5114445;28;20077;-71
2023/03/15 05:27:33;;;;;;;9.15;3.65;;;4.10;93.80;;;;;;5114380;28;20063;-72
2023/03/15 05:30:03;;;;;;;9.80;4.30;;;4.10;93.90;;;;;;5113273;28;20016;-73
2023/03/15 05:32:33;;;;;;;9.60;4.45;;;4.10;93.80;;;;;;5114430;28;20017;-73
2023/03/15 05:35:03;;;;;;;8.30;4.13;;;4.20;93.90;;;;;;5114244;28;20026;-73
2023/03/15 05:37:31;;;;;;;9.55;3.95;;;4.20;93.90;;;;;;5114134;28;20024;-73
2023/03/15 05:39:57;;;;;;;10.00;3.90;;;4.20;93.90;;;;;;5114096;28;20024;-73
2023/03/15 05:42:25;;;;;;;8.70;4.20;;;4.20;93.80;;;;;;5114077;28;20016;-73
2023/03/15 05:44:54;;;;;;;8.63;4.63;;;4.20;93.80;;;;;;5113136;28;20036;-73
2023/03/15 05:47:21;;;;;;;13.07;4.78;;;4.20;93.80;;;;;;5113063;28;20025;-73
2023/03/15 05:49:47;;;;;;;10.30;4.22;;;4.20;93.80;;;;;;5113668;28;20044;-73
2023/03/15 05:52:13;;;;;;;11.77;4.55;;;4.20;93.80;;;;;;5113937;28;20391;-73
2023/03/15 05:54:38;;;;;;;10.82;4.50;;;4.20;93.90;;;;;;5113914;28;20027;-73
2023/03/15 05:57:04;;;;;;;11.15;4.15;;;4.20;93.80;;;;;;5112944;28;20032;-73
2023/03/15 05:59:30;;;;;;;10.93;4.78;;;4.20;93.80;;;;;;5113758;28;20038;-73
2023/03/15 06:01:55;;;;;;;9.73;4.38;;;4.10;93.80;;;;;;5112952;28;20043;-73
2023/03/15 06:04:22;;;;;;;9.57;4.70;;;4.10;93.70;;;;;;5113793;28;20047;-73
2023/03/15 06:06:48;;;;;;;10.48;4.70;;;4.10;93.50;;;;;;5113860;28;20024;-73
2023/03/15 06:09:13;;;;;;;10.57;4.72;;;4.10;93.50;;;;;;5113632;28;20036;-73
2023/03/15 06:11:39;;;;;;;15.93;5.82;;;4.10;93.60;;;;;;5113641;28;20024;-73
2023/03/15 06:14:05;;;;;;;8.90;4.28;;;4.10;93.80;;;;;;5112499;28;20032;-73
2023/03/15 06:16:30;;;;;;;10.35;4.93;;;4.10;93.40;;;;;;5113584;28;20028;-73
2023/03/15 06:18:56;;;;;;;11.57;4.45;;;4.10;93.40;;;;;;5113608;28;20024;-73
2023/03/15 06:21:22;;;;;;;14.85;5.43;;;4.10;93.30;;;;;;5113561;28;20032;-73
2023/03/15 06:23:47;;;;;;;11.70;5.32;;;4.10;93.30;;;;;;5113525;28;20099;-73
2023/03/15 06:26:14;;;;;;;10.98;4.35;;;4.10;93.30;;;;;;5113471;28;20460;-73
2023/03/15 06:28:40;;;;;;;10.98;4.70;;;4.10;93.30;;;;;;5112284;28;20029;-73
2023/03/15 06:31:07;;;;;;;11.15;4.68;;;4.10;93.40;;;;;;5113315;28;20050;-73
2023/03/15 06:33:32;;;;;;;8.88;4.93;;;4.20;93.40;;;;;;5113431;28;20032;-72
2023/03/15 06:35:58;;;;;;;11.93;5.38;;;4.20;93.20;;;;;;5113409;28;20039;-73
2023/03/15 06:38:24;;;;;;;12.25;4.70;;;4.20;93.20;;;;;;5095451;28;20024;-73
2023/03/15 06:40:49;;;;;;;15.30;4.95;;;4.30;93.30;;;;;;5113363;28;20020;-73
2023/03/15 06:43:18;;;;;;;11.70;5.10;;;4.30;93.20;;;;;;5113344;28;20024;-72
2023/03/15 06:45:45;;;;;;;11.88;5.07;;;4.30;93.20;;;;;;5113352;28;20020;-72
2023/03/15 06:48:12;;;;;;;10.82;5.40;;;4.40;93.20;;;;;;5112293;28;20024;-73
2023/03/15 06:50:38;;;;;;;9.20;4.85;;;4.30;93.30;;;;;;5113049;28;20040;-72
2023/03/15 06:53:04;;;;;;;9.50;4.28;;;4.30;93.30;;;;;;5113153;28;20040;-72
2023/03/15 06:55:29;;;;;;;12.45;4.35;;;4.30;93.30;;;;;;5112274;28;20028;-72
2023/03/15 06:57:55;;;;;;;10.75;5.13;;;4.30;93.40;;;;;;5112172;28;20507;-72
2023/03/15 07:00:21;;;;;;;11.27;4.72;;;4.40;93.50;;;;;;5112264;28;20050;-73
2023/03/15 07:02:47;;;;;;;11.13;5.30;;;4.40;93.50;;;;;;5113184;28;20505;-73
2023/03/15 07:05:13;;;;;;;8.93;4.38;;;4.40;93.50;;;;;;5113130;28;20033;-72
2023/03/15 07:07:38;;;;;;;11.48;4.55;;;4.50;93.50;;;;;;5113071;28;20020;-73
2023/03/15 07:10:05;;;;;;;9.85;4.82;;;4.50;93.50;;;;;;5113072;28;20352;-73
2023/03/15 07:12:30;;;;;;;10.95;4.70;;;4.50;93.60;;;;;;5113068;28;20024;-73
2023/03/15 07:14:56;;;;;;;11.75;4.40;;;4.50;93.90;;;;;;5112117;28;20035;-73
2023/03/15 07:17:21;;;;;;;11.00;4.45;;;4.60;93.90;;;;;;5112161;28;20088;-73
2023/03/15 07:19:47;;;;;;;10.38;4.82;;;4.60;94.00;;;;;;5112935;28;20040;-73
2023/03/15 07:22:13;;;;;;;10.57;4.25;;;4.60;94.10;;;;;;5112163;28;20024;-72
2023/03/15 07:24:38;;;;;;;14.35;4.72;;;4.60;94.30;;;;;;5114236;28;20032;-72
2023/03/15 07:27:04;;;;;;;12.60;5.30;;;4.60;94.50;;;;;;5116731;28;20046;-72
2023/03/15 07:29:30;;;;;;;13.05;6.13;;;4.60;94.50;;;;;;5116660;28;20032;-72
2023/03/15 07:31:56;;;;;;;10.57;5.10;;;4.70;94.80;;;;;;5116656;28;20024;-73
2023/03/15 07:34:22;;;;;;;10.73;4.60;;;4.70;94.70;;;;;;5116584;28;20031;-72
2023/03/15 07:36:47;;;;;;;13.25;4.50;;;4.80;94.80;;;;;;5116638;28;20039;-73
2023/03/15 07:39:14;;;;;;;9.40;4.47;;;4.80;94.70;;;;;;5116192;28;20028;-72
2023/03/15 07:41:40;;;;;;;10.48;4.78;;;4.80;94.60;;;;;;5116379;28;20070;-73
2023/03/15 07:44:06;;;;;;;13.07;5.53;;;4.80;94.70;;;;;;5116337;28;20024;-73
2023/03/15 07:46:32;;;;;;;11.88;4.70;;;4.90;94.80;;;;;;5116292;28;20065;-72
2023/03/15 07:48:58;;;;;;;10.27;4.65;;;4.90;94.70;;;;;;5116184;28;20024;-71
2023/03/15 07:51:23;;;;;;;11.35;4.40;;;5.00;94.70;;;;;;5116204;28;20112;-72
2023/03/15 07:53:50;;;;;;;9.48;4.25;;;5.00;94.70;;;;;;5116125;28;20052;-72
2023/03/15 07:56:15;;;;;;;10.38;4.28;;;5.10;94.60;;;;;;5115423;28;20024;-72
2023/03/15 07:58:41;;;;;;;9.10;4.45;;;5.10;94.70;;;;;;5115015;28;20058;-73
2023/03/15 08:01:06;;;;;;;11.85;4.20;;;5.20;94.60;;;;;;5116021;28;20029;-73
2023/03/15 08:03:32;;;;;;;8.80;4.18;;;5.20;94.60;;;;;;5115102;28;20028;-73
2023/03/15 08:05:58;;;;;;;15.75;4.50;;;5.30;94.70;;;;;;5115932;28;20081;-72
2023/03/15 08:08:24;;;;;;;9.13;3.97;;;5.40;94.60;;;;;;5114988;28;20062;-72
2023/03/15 08:10:49;;;;;;;7.13;3.38;;;5.40;94.60;;;;;;5115836;28;20024;-72
2023/03/15 08:13:15;;;;;;;6.30;3.03;;;5.50;94.70;;;;;;5115810;28;20399;-72
2023/03/15 08:15:44;;;;;;;8.93;3.75;;;5.60;94.60;;;;;;5115753;28;20036;-72
2023/03/15 08:18:10;;;;;;;9.35;4.03;;;5.70;94.50;;;;;;5115648;28;20032;-72
2023/03/15 08:20:36;;;;;;;8.93;3.58;;;5.80;94.50;;;;;;5115772;28;20055;-73
2023/03/15 08:23:01;;;;;;;7.75;3.05;;;5.90;94.30;;;;;;5115623;28;20024;-73
2023/03/15 08:25:28;;;;;;;9.23;3.08;;;5.90;94.30;;;;;;5114575;28;20028;-72
2023/03/15 08:27:53;;;;;;;8.00;3.70;;;6.00;94.10;;;;;;5115547;28;20030;-72
2023/03/15 08:30:20;;;;;;;8.68;3.35;;;6.10;93.90;;;;;;5115466;28;20024;-72
2023/03/15 08:32:47;;;;;;;7.00;3.10;;;6.30;93.80;;;;;;5115455;28;20032;-72
2023/03/15 08:35:14;;;;;;;5.57;3.15;;;6.40;93.70;;;;;;5115000;28;20084;-72
2023/03/15 08:37:40;;;;;;;12.15;3.47;;;6.40;93.40;;;;;;5114828;28;20016;-72
2023/03/15 08:40:10;;;;;;;7.68;2.97;;;6.50;93.30;;;;;;5115216;28;20031;-72
2023/03/15 08:42:36;;;;;;;8.38;3.08;;;6.60;93.20;;;;;;5115273;28;20034;-73
2023/03/15 08:45:07;;;;;;;11.15;3.30;;;6.70;92.90;;;;;;5097262;28;20020;-73
2023/03/15 08:47:36;;;;;;;8.48;3.13;;;6.80;92.70;;;;;;5115109;28;20558;-73
2023/03/15 08:50:07;;;;;;;5.53;2.17;;;6.90;92.50;;;;;;5113772;28;20181;-73
2023/03/15 08:52:33;;;;;;;12.57;3.15;;;7.00;92.60;;;;;;5115241;28;20028;-73
2023/03/15 08:54:59;;;;;;;7.15;2.72;;;7.10;92.00;;;;;;5114974;28;20038;-72
2023/03/15 08:57:25;;;;;;;6.72;3.03;;;7.20;91.70;;;;;;5114052;28;20495;-72
2023/03/15 08:59:51;;;;;;;7.65;2.90;;;7.10;91.60;;;;;;5114847;28;20031;-72
2023/03/15 09:02:17;;;;;;;9.32;2.50;;;7.20;91.40;;;;;;5114859;28;20491;-72
2023/03/15 09:04:43;;;;;;;14.88;6.75;;;7.20;90.90;;;;;;5114742;28;20024;-71
2023/03/15 09:07:11;;;;;;;25.13;9.45;;;7.30;90.90;;;;;;5114859;28;20051;-72
2023/03/15 09:09:37;;;;;;;7.15;3.05;;;7.40;90.90;;;;;;5113518;28;20024;-72
2023/03/15 09:12:02;;;;;;;6.00;2.50;;;7.40;91.00;;;;;;5114701;28;20024;-72
2023/03/15 09:14:28;;;;;;;6.10;2.67;;;7.60;91.10;;;;;;5114645;28;20035;-72
2023/03/15 09:16:54;;;;;;;7.00;2.50;;;7.70;91.10;;;;;;5114592;28;20024;-72
2023/03/15 09:19:20;;;;;;;7.20;2.28;;;7.80;90.60;;;;;;5114473;28;20028;-72
2023/03/15 09:21:46;;;;;;;7.53;2.55;;;7.80;90.00;;;;;;5113591;28;20043;-71
2023/03/15 09:24:12;;;;;;;7.75;2.28;;;7.90;90.00;;;;;;5114400;28;20031;-72
2023/03/15 09:26:38;;;;;;;4.20;2.30;;;8.00;88.90;;;;;;5114365;28;20023;-72
2023/03/15 09:29:04;;;;;;;8.18;1.95;;;7.90;87.70;;;;;;5114342;28;20025;-72
2023/03/15 09:31:31;;;;;;;5.07;1.80;;;7.90;88.50;;;;;;5114334;28;20028;-72
2023/03/15 09:33:57;;;;;;;5.57;2.05;;;8.10;88.20;;;;;;5114259;28;20059;-72
2023/03/15 09:36:23;;;;;;;5.28;1.73;;;8.20;88.30;;;;;;5114346;28;20107;-72
2023/03/15 09:38:49;;;;;;;5.28;2.00;;;8.30;87.40;;;;;;5114244;28;20024;-72
2023/03/15 09:41:32;;;;;;;5.15;1.80;;;8.10;83.20;;;;;;5114121;28;20024;-72
2023/03/15 09:44:21;;;;;;;8.05;1.58;;;7.90;84.30;;;;;;5114078;28;20045;-72
2023/03/15 09:47:17;;;;;;;4.80;1.23;;;7.90;84.30;;;;;;5113759;28;20016;-72
2023/03/15 09:49:46;;;;;;;4.93;1.55;;;8.10;84.10;;;;;;5113866;28;20032;-72
2023/03/15 09:52:36;;;;;;;5.20;1.83;;;8.30;85.40;;;;;;5114130;28;20092;-72
2023/03/15 09:55:06;;;;;;;6.00;1.52;;;8.50;84.90;;;;;;5113978;28;20020;-72
2023/03/15 09:57:55;;;;;;;5.18;1.27;;;8.60;80.40;;;;;;5114003;28;20087;-72
2023/03/15 10:00:31;;;;;;;4.68;1.02;;;8.60;78.30;;;;;;5076239;28;20036;-73
2023/03/15 10:03:00;;;;;;;11.43;1.65;;;8.60;80.40;;;;;;5112885;28;20178;-73
2023/03/15 10:05:41;;;;;;;6.45;1.48;;;8.60;79.90;;;;;;5113782;28;20099;-73
2023/03/15 10:08:17;;;;;;;4.22;2.00;;;8.40;78.00;;;;;;5113799;28;20114;-73
2023/03/15 10:11:12;;;;;;;2.60;1.30;;;8.30;77.80;;;;;;5113861;28;20055;-73
2023/03/15 10:13:37;;;;;;;5.22;1.05;;;8.10;76.30;;;;;;5075668;28;20111;-73
2023/03/15 10:16:33;;;;;;;4.07;1.08;;;7.90;75.10;;;;;;5112546;28;20024;-73
2023/03/15 10:19:05;;;;;;;6.72;1.50;;;8.00;77.30;;;;;;5113490;28;20028;-73
2023/03/15 10:21:36;;;;;;;6.20;2.07;;;8.00;78.20;;;;;;5112548;28;20024;-73
2023/03/15 10:24:04;;;;;;;2.70;1.45;;;8.00;78.10;;;;;;5113757;28;20020;-73
2023/03/15 10:26:37;;;;;;;6.68;1.80;;;8.00;78.30;;;;;;5113512;28;20024;-73
2023/03/15 10:29:13;;;;;;;3.50;1.45;;;7.90;77.10;;;;;;5113570;28;20083;-73
2023/03/15 10:31:41;;;;;;;4.30;1.15;;;7.90;78.60;;;;;;5113476;28;20024;-73
2023/03/15 10:34:10;;;;;;;3.45;1.05;;;8.00;79.10;;;;;;5113429;28;20020;-73
2023/03/15 10:36:36;;;;;;;5.22;1.20;;;8.10;78.60;;;;;;5113440;28;20020;-73
2023/03/15 10:39:04;;;;;;;3.67;1.40;;;8.10;77.70;;;;;;5113293;28;20031;-73
2023/03/15 10:41:42;;;;;;;4.05;1.40;;;8.20;77.90;;;;;;5113393;28;20031;-72
2023/03/15 10:44:23;;;;;;;5.00;1.20;;;8.50;77.10;;;;;;5113362;28;20032;-72
2023/03/15 10:47:15;;;;;;;5.32;1.52;;;8.70;77.90;;;;;;5113367;28;20016;-72
2023/03/15 10:49:40;;;;;;;4.40;1.40;;;9.00;77.40;;;;;;5113305;28;20155;-73
2023/03/15 10:52:30;;;;;;;5.25;1.13;;;9.20;75.30;;;;;;5113341;28;20044;-72
2023/03/15 10:54:56;;;;;;;2.83;0.95;;;9.20;73.80;;;;;;5113330;28;20020;-72
2023/03/15 10:57:26;;;;;;;6.78;0.95;;;9.40;74.10;;;;;;5113355;28;20034;-73
2023/03/15 11:00:05;;;;;;;4.45;1.10;;;9.50;72.90;;;;;;5114852;28;20040;-74
2023/03/15 11:02:31;;;;;;;3.17;0.95;;;9.40;69.00;;;;;;5117221;28;20023;-74
2023/03/15 11:05:08;;;;;;;2.63;1.25;;;9.50;68.40;;;;;;5117135;28;20024;-74
2023/03/15 11:07:34;;;;;;;1.77;0.85;;;9.20;68.40;;;;;;5117137;28;20024;-73
2023/03/15 11:10:02;;;;;;;2.30;1.02;;;8.80;68.00;;;;;;5115899;28;20099;-74
2023/03/15 11:12:33;;;;;;;3.97;1.02;;;8.60;69.30;;;;;;5116694;28;20047;-74
2023/03/15 11:15:09;;;;;;;4.40;1.23;;;8.60;71.40;;;;;;5116404;28;20028;-73
2023/03/15 11:17:41;;;;;;;3.60;0.95;;;8.90;72.10;;;;;;5116923;28;20016;-74
2023/03/15 11:20:29;;;;;;;3.40;0.90;;;9.20;73.30;;;;;;5116624;28;20028;-75
2023/03/15 11:22:56;;;;;;;2.20;0.70;;;9.20;70.30;;;;;;5115130;28;20020;-75
2023/03/15 11:25:30;;;;;;;6.10;1.10;;;9.40;67.50;;;;;;5116304;28;20251;-75
2023/03/15 11:27:56;;;;;;;3.85;1.08;;;9.40;66.50;;;;;;5116340;28;20028;-75
2023/03/15 11:30:28;;;;;;;2.25;0.80;;;9.50;68.40;;;;;;5116206;28;20044;-75
2023/03/15 11:32:54;;;;;;;2.63;0.90;;;9.40;65.10;;;;;;5116173;28;20012;-75
2023/03/15 11:35:31;;;;;;;4.70;0.93;;;9.40;62.90;;;;;;5116072;28;20027;-75
2023/03/15 11:38:03;;;;;;;3.22;0.93;;;9.20;63.90;;;;;;5116535;28;20023;-75
2023/03/15 11:40:33;;;;;;;4.32;1.17;;;9.40;66.80;;;;;;5116570;28;20047;-75
2023/03/15 11:43:07;;;;;;;1.60;0.65;;;9.60;68.60;;;;;;5116449;28;20080;-75
2023/03/15 11:45:39;;;;;;;4.30;1.08;;;9.90;68.40;;;;;;5116529;28;20103;-75
2023/03/15 11:48:30;;;;;;;6.30;1.23;;;9.80;67.70;;;;;;5116386;28;20021;-75
2023/03/15 11:50:57;;;;;;;3.80;1.30;;;9.70;67.50;;;;;;5116244;28;20040;-74
2023/03/15 11:53:29;;;;;;;6.40;1.10;;;9.70;64.70;;;;;;5116286;28;20021;-75
2023/03/15 11:55:57;;;;;;;4.90;0.85;;;9.40;60.10;;;;;;5116271;28;20031;-75
2023/03/15 11:58:41;;;;;;;5.40;1.13;;;9.40;61.50;;;;;;5116132;28;20024;-74
2023/03/15 12:01:10;;;;;;;5.20;0.90;;;9.30;61.00;;;;;;5115127;28;20051;-73
2023/03/15 12:03:37;;;;;;;4.13;0.98;;;9.50;62.70;;;;;;5116060;28;20017;-73
2023/03/15 12:06:32;;;;;;;2.33;0.50;;;9.50;58.60;;;;;;5116164;28;20452;-73
2023/03/15 12:08:58;;;;;;;3.72;0.90;;;9.60;62.30;;;;;;5115779;28;20045;-75
2023/03/15 12:11:24;;;;;;;3.63;0.82;;;9.80;64.40;;;;;;5115635;28;20032;-73
2023/03/15 12:14:39;;;;;;;2.47;0.70;;;10.10;65.20;;;;;;5115840;28;20024;-73
2023/03/15 12:17:23;;;;;;;5.88;0.90;;;10.20;62.10;;;;;;5106713;28;20047;-73
2023/03/15 12:20:11;;;;;;;2.75;0.80;;;10.50;58.60;;;;;;5115656;28;20055;-73
2023/03/15 12:22:42;;;;;;;0.40;0.28;;;10.50;60.20;;;;;;5115730;28;20027;-73
2023/03/15 12:25:12;;;;;;;2.25;0.57;;;10.30;49.50;;;;;;5114723;28;20020;-73
2023/03/15 12:27:46;;;;;;;2.95;0.95;;;10.10;52.20;;;;;;5115616;28;20032;-73
2023/03/15 12:30:38;;;;;;;2.78;0.90;;;10.10;56.90;;;;;;5114542;28;20463;-73
2023/03/15 12:33:15;;;;;;;4.97;1.23;;;10.30;56.70;;;;;;5114915;28;20055;-73
2023/03/15 12:35:41;;;;;;;3.75;0.82;;;10.60;61.00;;;;;;5115585;28;20024;-73
2023/03/15 12:38:38;;;;;;;2.83;0.68;;;10.70;56.30;;;;;;5115310;28;20024;-73
2023/03/15 12:41:09;;;;;;;3.08;1.10;;;10.50;55.00;;;;;;5114158;28;20070;-73
2023/03/15 12:43:34;;;;;;;3.55;0.73;;;10.10;55.30;;;;;;5115295;28;20020;-73
2023/03/15 12:46:00;;;;;;;2.45;0.88;;;10.10;57.20;;;;;;5115242;28;20031;-73
2023/03/15 12:48:27;;;;;;;3.15;1.02;;;10.30;58.60;;;;;;5115158;28;20036;-73
2023/03/15 12:50:55;;;;;;;4.70;1.02;;;10.60;58.10;;;;;;5113905;28;20139;-73
2023/03/15 12:53:35;;;;;;;1.92;0.77;;;10.70;53.60;;;;;;5114122;28;20044;-73
2023/03/15 12:56:32;;;;;;;2.03;1.10;;;10.60;54.70;;;;;;5114981;28;20023;-73
2023/03/15 12:59:20;;;;;;;1.27;0.85;;;10.50;54.20;;;;;;5114925;28;20048;-73
2023/03/15 13:01:47;;;;;;;3.58;1.23;;;10.60;54.90;;;;;;5115046;28;20038;-73
2023/03/15 13:04:13;;;;;;;2.88;1.05;;;10.80;56.70;;;;;;5113877;28;20083;-73